createdAt,value
2022-08-30T00:01:05.807Z,6.27
2022-08-30T00:03:42.830Z,6.37
2022-08-30T00:06:10.375Z,6.73
2022-08-30T00:08:38.361Z,6.40
2022-08-30T00:11:08.360Z,6.83
2022-08-30T00:13:35.352Z,7.30
2022-08-30T00:16:02.191Z,7.13
2022-08-30T00:18:28.903Z,6.93
2022-08-30T00:20:56.090Z,6.33
2022-08-30T00:23:23.174Z,7.23
2022-08-30T00:25:49.906Z,7.33
2022-08-30T00:28:17.144Z,6.77
2022-08-30T00:30:44.761Z,7.13
2022-08-30T00:33:12.821Z,6.57
2022-08-30T00:35:40.216Z,7.13
2022-08-30T00:38:08.811Z,7.13
2022-08-30T00:40:37.880Z,7.43
2022-08-30T00:43:10.174Z,6.90
2022-08-30T00:45:41.258Z,6.37
2022-08-30T00:48:08.187Z,6.80
2022-08-30T00:50:59.068Z,7.43
2022-08-30T00:53:31.171Z,7.00
2022-08-30T00:55:59.407Z,7.37
2022-08-30T00:58:32.136Z,7.43
2022-08-30T01:01:00.882Z,7.10
2022-08-30T01:03:29.731Z,7.30
2022-08-30T01:05:58.717Z,6.97
2022-08-30T01:08:25.366Z,6.43
2022-08-30T01:10:53.822Z,7.70
2022-08-30T01:13:22.731Z,7.27
2022-08-30T01:15:50.819Z,7.57
2022-08-30T01:18:21.291Z,7.63
2022-08-30T01:21:04.007Z,7.23
2022-08-30T01:23:32.526Z,7.17
2022-08-30T01:26:00.549Z,7.37
2022-08-30T01:28:29.022Z,8.23
2022-08-30T01:30:56.718Z,7.90
2022-08-30T01:33:24.554Z,8.10
2022-08-30T01:36:03.431Z,7.40
2022-08-30T01:38:48.041Z,8.20
2022-08-30T01:41:19.725Z,8.43
2022-08-30T01:43:47.491Z,7.30
2022-08-30T01:46:16.805Z,7.30
2022-08-30T01:48:53.797Z,7.47
2022-08-30T01:51:22.237Z,8.03
2022-08-30T01:53:49.561Z,8.43
2022-08-30T01:56:16.360Z,8.37
2022-08-30T01:58:44.119Z,8.90
2022-08-30T02:01:14.882Z,8.63
2022-08-30T02:03:44.234Z,9.23
2022-08-30T02:06:14.616Z,9.07
2022-08-30T02:08:42.554Z,8.50
2022-08-30T02:11:11.009Z,8.23
2022-08-30T02:13:39.783Z,7.97
2022-08-30T02:16:09.122Z,8.47
2022-08-30T02:18:39.271Z,8.83
2022-08-30T02:21:07.117Z,8.63
2022-08-30T02:23:34.007Z,9.33
2022-08-30T02:26:01.437Z,8.57
2022-08-30T02:28:28.987Z,9.03
2022-08-30T02:30:55.807Z,8.50
2022-08-30T02:33:22.472Z,8.80
2022-08-30T02:35:49.149Z,8.70
2022-08-30T02:38:15.958Z,8.57
2022-08-30T02:40:46.735Z,8.33
2022-08-30T02:43:13.353Z,8.23
2022-08-30T02:45:39.974Z,8.73
2022-08-30T02:48:06.663Z,8.10
2022-08-30T02:50:33.494Z,8.40
2022-08-30T02:53:00.214Z,9.00
2022-08-30T02:55:26.973Z,8.57
2022-08-30T02:57:53.676Z,8.77
2022-08-30T03:00:21.067Z,8.33
2022-08-30T03:02:48.027Z,8.37
2022-08-30T03:05:16.283Z,8.67
2022-08-30T03:07:44.181Z,8.50
2022-08-30T03:10:11.720Z,9.23
2022-08-30T03:12:41.530Z,10.13
2022-08-30T03:15:10.063Z,8.63
2022-08-30T03:17:36.628Z,9.60
2022-08-30T03:20:04.103Z,9.00
2022-08-30T03:22:30.794Z,8.80
2022-08-30T03:24:59.547Z,9.67
2022-08-30T03:27:27.387Z,9.37
2022-08-30T03:29:54.128Z,10.53
2022-08-30T03:32:21.341Z,10.20
2022-08-30T03:34:47.990Z,10.77
2022-08-30T03:37:14.585Z,9.93
2022-08-30T03:39:41.250Z,9.70
2022-08-30T03:42:07.919Z,9.53
2022-08-30T03:44:35.699Z,9.97
2022-08-30T03:47:04.035Z,9.47
2022-08-30T03:49:31.339Z,10.60
2022-08-30T03:51:57.964Z,10.77
2022-08-30T03:54:24.911Z,9.77
2022-08-30T03:56:52.000Z,9.40
2022-08-30T03:59:18.539Z,10.00
2022-08-30T04:01:45.955Z,9.37
2022-08-30T04:04:14.521Z,8.83
2022-08-30T04:06:42.903Z,10.40
2022-08-30T04:09:09.875Z,10.23
2022-08-30T04:11:36.443Z,9.73
2022-08-30T04:14:03.158Z,10.13
2022-08-30T04:16:29.831Z,9.60
2022-08-30T04:18:56.470Z,9.30
2022-08-30T04:21:23.141Z,9.27
2022-08-30T04:23:49.681Z,10.37
2022-08-30T04:26:16.480Z,9.43
2022-08-30T04:28:43.099Z,10.80
2022-08-30T04:31:15.561Z,10.57
2022-08-30T04:33:43.220Z,10.80
2022-08-30T04:36:10.933Z,9.67
2022-08-30T04:38:39.348Z,10.03
2022-08-30T04:41:16.466Z,10.97
2022-08-30T04:43:48.450Z,10.37
2022-08-30T04:46:15.247Z,10.67
2022-08-30T04:48:41.941Z,9.67
2022-08-30T04:51:11.018Z,10.33
2022-08-30T04:53:37.603Z,10.53
2022-08-30T04:56:09.974Z,10.10
2022-08-30T04:58:36.906Z,10.27
2022-08-30T05:01:04.531Z,10.80
2022-08-30T05:03:31.311Z,10.87
2022-08-30T05:05:57.887Z,11.20
2022-08-30T05:08:24.860Z,10.63
2022-08-30T05:10:52.354Z,9.67
2022-08-30T05:13:21.390Z,9.97
2022-08-30T05:15:57.033Z,10.23
2022-08-30T05:18:23.806Z,11.03
2022-08-30T05:20:50.371Z,10.30
2022-08-30T05:23:17.109Z,11.00
2022-08-30T05:25:43.915Z,9.60
2022-08-30T05:28:10.566Z,11.57
2022-08-30T05:30:38.336Z,10.60
2022-08-30T05:33:05.030Z,10.73
2022-08-30T05:35:31.873Z,11.27
2022-08-30T05:37:58.489Z,10.47
2022-08-30T05:40:25.440Z,10.93
2022-08-30T05:42:54.497Z,10.83
2022-08-30T05:45:21.175Z,10.53
2022-08-30T05:47:47.897Z,10.50
2022-08-30T05:50:14.887Z,10.93
2022-08-30T05:52:43.696Z,10.03
2022-08-30T05:55:11.631Z,10.47
2022-08-30T05:57:40.033Z,10.43
2022-08-30T06:00:10.678Z,10.00
2022-08-30T06:02:37.262Z,10.40
2022-08-30T06:05:04.658Z,10.70
2022-08-30T06:07:31.535Z,10.00
2022-08-30T06:09:58.186Z,10.10
2022-08-30T06:12:24.737Z,10.83
2022-08-30T06:14:51.479Z,10.40
2022-08-30T06:17:20.278Z,10.67
2022-08-30T06:19:46.837Z,10.87
2022-08-30T06:22:13.434Z,10.37
2022-08-30T06:24:56.406Z,10.43
2022-08-30T06:27:24.315Z,10.57
2022-08-30T06:29:52.375Z,11.33
2022-08-30T06:32:19.164Z,10.83
2022-08-30T06:34:45.772Z,11.53
2022-08-30T06:37:12.369Z,10.60
2022-08-30T06:39:57.578Z,11.30
2022-08-30T06:42:30.482Z,11.13
2022-08-30T06:44:57.772Z,9.93
2022-08-30T06:47:24.370Z,10.40
2022-08-30T06:49:50.920Z,11.57
2022-08-30T06:52:17.475Z,10.97
2022-08-30T06:54:45.830Z,10.73
2022-08-30T06:57:12.815Z,10.80
2022-08-30T06:59:39.765Z,10.27
2022-08-30T07:02:07.932Z,10.60
2022-08-30T07:04:35.035Z,10.23
2022-08-30T07:07:01.889Z,9.77
2022-08-30T07:09:28.526Z,11.03
2022-08-30T07:11:55.497Z,10.70
2022-08-30T07:14:22.402Z,11.07
2022-08-30T07:16:50.822Z,10.57
2022-08-30T07:19:20.509Z,10.73
2022-08-30T07:21:49.232Z,10.97
2022-08-30T07:24:16.800Z,10.80
2022-08-30T07:26:49.848Z,10.80
2022-08-30T07:29:17.872Z,10.87
2022-08-30T07:31:44.986Z,10.17
2022-08-30T07:34:11.636Z,10.10
2022-08-30T07:36:39.168Z,9.63
2022-08-30T07:39:07.240Z,10.23
2022-08-30T07:41:38.856Z,9.77
2022-08-30T07:44:07.389Z,9.60
2022-08-30T07:46:34.859Z,9.43
2022-08-30T07:49:04.171Z,9.43
2022-08-30T07:51:32.434Z,10.10
2022-08-30T07:53:59.246Z,10.07
2022-08-30T07:56:26.124Z,9.73
2022-08-30T07:58:53.530Z,9.80
2022-08-30T08:01:21.335Z,10.43
2022-08-30T08:03:50.272Z,10.50
2022-08-30T08:06:19.975Z,9.97
2022-08-30T08:08:46.991Z,9.97
2022-08-30T08:11:17.340Z,10.30
2022-08-30T08:13:52.864Z,11.23
2022-08-30T08:16:23.800Z,10.47
2022-08-30T08:18:51.329Z,10.10
2022-08-30T08:21:18.014Z,9.73
2022-08-30T08:23:44.929Z,10.17
2022-08-30T08:26:11.513Z,10.80
2022-08-30T08:28:38.171Z,11.27
2022-08-30T08:31:17.366Z,10.67
2022-08-30T08:33:44.486Z,11.47
2022-08-30T08:36:11.031Z,12.50
2022-08-30T08:38:37.885Z,10.97
2022-08-30T08:41:50.182Z,12.47
2022-08-30T08:44:41.074Z,13.47
2022-08-30T08:47:37.506Z,12.00
2022-08-30T08:50:10.291Z,12.03
2022-08-30T08:53:20.532Z,12.33
2022-08-30T08:55:52.832Z,11.13
2022-08-30T08:58:26.031Z,12.23
2022-08-30T09:00:54.526Z,11.43
2022-08-30T09:03:22.841Z,11.27
2022-08-30T09:05:50.417Z,11.05
2022-08-30T09:08:19.723Z,9.88
2022-08-30T09:11:01.727Z,9.45
2022-08-30T09:13:28.566Z,9.23
2022-08-30T09:15:59.484Z,10.63
2022-08-30T09:18:51.368Z,10.65
2022-08-30T09:21:24.929Z,9.77
2022-08-30T09:23:59.337Z,9.90
2022-08-30T09:26:32.101Z,8.77
2022-08-30T09:29:00.856Z,9.13
2022-08-30T09:31:48.992Z,8.80
2022-08-30T09:34:23.859Z,9.10
2022-08-30T09:36:56.081Z,9.10
2022-08-30T09:39:32.736Z,10.10
2022-08-30T09:42:21.103Z,9.13
2022-08-30T09:44:47.936Z,8.65
2022-08-30T09:47:31.411Z,9.75
2022-08-30T09:50:17.691Z,8.48
2022-08-30T09:52:59.637Z,9.18
2022-08-30T09:55:32.205Z,9.50
2022-08-30T09:58:02.038Z,9.32
2022-08-30T10:00:31.613Z,8.77
2022-08-30T10:03:04.429Z,8.43
2022-08-30T10:05:36.322Z,8.43
2022-08-30T10:08:16.480Z,8.82
2022-08-30T10:11:06.462Z,8.98
2022-08-30T10:13:48.759Z,8.38
2022-08-30T10:16:40.092Z,8.85
2022-08-30T10:19:52.345Z,9.07
2022-08-30T10:22:30.358Z,8.68
2022-08-30T10:25:25.459Z,9.32
2022-08-30T10:28:16.044Z,8.75
2022-08-30T10:30:50.210Z,9.18
2022-08-30T10:33:22.996Z,8.88
2022-08-30T10:35:58.504Z,8.60
2022-08-30T10:38:33.309Z,8.77
2022-08-30T10:41:25.172Z,8.82
2022-08-30T10:43:54.617Z,8.38
2022-08-30T10:46:27.476Z,8.35
2022-08-30T10:48:56.085Z,8.38
2022-08-30T10:51:31.846Z,7.95
2022-08-30T10:54:12.421Z,8.35
2022-08-30T10:56:48.610Z,8.57
2022-08-30T10:59:20.864Z,8.02
2022-08-30T11:02:18.117Z,7.97
2022-08-30T11:04:56.959Z,8.00
2022-08-30T11:07:52.125Z,7.50
2022-08-30T11:10:49.926Z,7.47
2022-08-30T11:13:38.457Z,7.45
2022-08-30T11:16:08.011Z,8.15
2022-08-30T11:18:57.174Z,7.55
2022-08-30T11:21:36.667Z,7.72
2022-08-30T11:24:15.035Z,7.55
2022-08-30T11:26:50.818Z,6.65
2022-08-30T11:29:27.040Z,7.45
2022-08-30T11:32:18.509Z,6.88
2022-08-30T11:34:45.237Z,6.18
2022-08-30T11:37:33.819Z,6.95
2022-08-30T11:40:06.403Z,6.22
2022-08-30T11:42:35.976Z,6.65
2022-08-30T11:45:25.210Z,6.85
2022-08-30T11:47:59.643Z,6.40
2022-08-30T11:51:00.490Z,7.15
2022-08-30T11:53:33.583Z,6.15
2022-08-30T11:56:15.668Z,5.70
2022-08-30T11:58:51.977Z,5.93
2022-08-30T12:01:50.143Z,6.78
2022-08-30T12:04:18.215Z,6.30
2022-08-30T12:07:05.596Z,6.63
2022-08-30T12:09:35.170Z,5.70
2022-08-30T12:12:05.924Z,6.13
2022-08-30T12:14:51.638Z,5.90
2022-08-30T12:17:48.382Z,6.07
2022-08-30T12:20:24.167Z,6.38
2022-08-30T12:22:52.447Z,5.68
2022-08-30T12:25:31.944Z,6.40
2022-08-30T12:28:16.150Z,5.63
2022-08-30T12:30:43.506Z,6.10
2022-08-30T12:33:22.986Z,5.60
2022-08-30T12:35:58.420Z,5.63
2022-08-30T12:38:28.117Z,5.30
2022-08-30T12:40:58.118Z,5.20
2022-08-30T12:43:50.367Z,5.78
2022-08-30T12:46:19.153Z,5.43
2022-08-30T12:48:48.341Z,4.85
2022-08-30T12:51:41.129Z,4.60
2022-08-30T12:54:21.574Z,6.00
2022-08-30T12:57:25.604Z,4.93
2022-08-30T12:59:59.218Z,5.30
2022-08-30T13:02:52.897Z,5.97
2022-08-30T13:05:32.421Z,6.18
2022-08-30T13:08:48.858Z,6.53
2022-08-30T13:11:21.359Z,6.07
2022-08-30T13:14:31.251Z,6.32
2022-08-30T13:17:20.315Z,6.45
2022-08-30T13:19:59.119Z,5.70
2022-08-30T13:22:37.892Z,6.45
2022-08-30T13:25:06.901Z,5.65
2022-08-30T13:27:36.930Z,6.47
2022-08-30T13:30:13.497Z,5.95
2022-08-30T13:32:40.845Z,6.18
2022-08-30T13:35:09.357Z,5.88
2022-08-30T13:37:49.940Z,5.80
2022-08-30T13:40:18.673Z,5.68
2022-08-30T13:42:45.371Z,5.88
2022-08-30T13:48:01.363Z,5.57
2022-08-30T13:50:28.139Z,5.68
2022-08-30T13:52:57.151Z,5.97
2022-08-30T13:55:24.049Z,4.85
2022-08-30T13:57:54.762Z,5.22
2022-08-30T14:00:22.515Z,5.30
2022-08-30T14:02:54.460Z,5.68
2022-08-30T14:05:48.836Z,5.50
2022-08-30T14:11:15.963Z,6.47
2022-08-30T14:16:34.477Z,6.18
2022-08-30T14:19:01.498Z,6.30
2022-08-30T14:24:42.289Z,6.47
2022-08-30T14:27:09.011Z,6.28
2022-08-30T14:29:36.173Z,6.22
2022-08-30T14:32:03.263Z,6.63
2022-08-30T14:34:30.015Z,6.47
2022-08-30T14:36:56.671Z,6.18
2022-08-30T14:39:24.253Z,6.05
2022-08-30T14:41:53.277Z,5.60
2022-08-30T14:44:22.011Z,5.53
2022-08-30T14:46:50.935Z,5.70
2022-08-30T14:49:18.665Z,6.20
2022-08-30T14:51:48.381Z,5.80
2022-08-30T14:54:17.006Z,4.90
2022-08-30T14:56:43.787Z,6.13
2022-08-30T14:59:13.217Z,5.43
2022-08-30T15:01:40.442Z,5.65
2022-08-30T15:04:09.200Z,5.65
2022-08-30T15:06:37.670Z,6.18
2022-08-30T15:09:06.066Z,6.22
2022-08-30T15:11:33.246Z,5.82
2022-08-30T15:14:00.375Z,5.80
2022-08-30T15:16:33.008Z,6.03
2022-08-30T15:19:00.389Z,6.47
2022-08-30T15:21:33.032Z,6.35
2022-08-30T15:24:01.567Z,5.75
2022-08-30T15:26:28.514Z,5.95
2022-08-30T15:28:56.076Z,6.55
2022-08-30T15:31:28.664Z,6.25
2022-08-30T15:33:55.580Z,5.90
2022-08-30T15:36:24.164Z,5.93
2022-08-30T15:38:52.872Z,5.88
2022-08-30T15:41:19.630Z,5.63
2022-08-30T15:43:46.290Z,5.50
2022-08-30T15:46:29.379Z,5.30
2022-08-30T15:49:00.253Z,4.63
2022-08-30T15:51:27.090Z,5.10
2022-08-30T15:54:03.449Z,4.45
2022-08-30T15:56:31.082Z,3.92
2022-08-30T15:58:57.768Z,3.90
2022-08-30T16:01:30.754Z,4.57
2022-08-30T16:03:58.615Z,4.20
2022-08-30T16:06:28.586Z,4.28
2022-08-30T16:08:56.235Z,4.43
2022-08-30T16:11:24.813Z,4.10
2022-08-30T16:13:56.314Z,4.25
2022-08-30T16:16:23.948Z,4.07
2022-08-30T16:18:53.892Z,3.90
2022-08-30T16:21:26.643Z,4.53
2022-08-30T16:23:56.345Z,4.13
2022-08-30T16:26:24.054Z,3.83
2022-08-30T16:28:50.738Z,3.20
2022-08-30T16:31:18.191Z,3.33
2022-08-30T16:33:45.971Z,2.83
2022-08-30T16:36:13.326Z,2.88
2022-08-30T16:38:42.115Z,2.83
2022-08-30T16:41:15.606Z,2.97
2022-08-30T16:43:45.829Z,2.90
2022-08-30T16:46:15.934Z,3.03
2022-08-30T16:48:44.774Z,3.78
2022-08-30T16:51:14.810Z,3.10
2022-08-30T16:53:41.852Z,2.90
2022-08-30T16:56:18.407Z,2.77
2022-08-30T16:58:46.172Z,3.30
2022-08-30T17:01:13.099Z,3.03
2022-08-30T17:03:40.711Z,2.80
2022-08-30T17:06:08.039Z,2.63
2022-08-30T17:08:35.035Z,2.90
2022-08-30T17:11:01.761Z,2.73
2022-08-30T17:13:28.688Z,3.13
2022-08-30T17:15:56.466Z,2.80
2022-08-30T17:18:23.639Z,2.97
2022-08-30T17:20:50.232Z,2.77
2022-08-30T17:23:17.063Z,3.00
2022-08-30T17:25:44.287Z,2.63
2022-08-30T17:28:11.214Z,3.00
2022-08-30T17:30:38.312Z,2.90
2022-08-30T17:33:06.918Z,3.30
2022-08-30T17:35:33.467Z,3.23
2022-08-30T17:38:00.055Z,3.23
2022-08-30T17:40:28.167Z,3.30
2022-08-30T17:42:54.840Z,3.00
2022-08-30T17:45:21.555Z,3.33
2022-08-30T17:47:48.712Z,3.27
2022-08-30T17:50:16.535Z,3.43
2022-08-30T17:52:46.444Z,3.20
2022-08-30T17:55:13.988Z,3.17
2022-08-30T17:57:42.008Z,3.13
2022-08-30T18:00:15.657Z,3.30
2022-08-30T18:02:42.875Z,3.33
2022-08-30T18:05:10.116Z,3.50
2022-08-30T18:07:37.024Z,3.23
2022-08-30T18:10:04.863Z,3.30
2022-08-30T18:12:31.494Z,3.27
2022-08-30T18:15:00.802Z,4.00
2022-08-30T18:17:28.436Z,3.40
2022-08-30T18:19:54.991Z,3.57
2022-08-30T18:22:24.481Z,3.60
2022-08-30T18:24:51.454Z,3.77
2022-08-30T18:27:18.214Z,3.10
2022-08-30T18:29:45.064Z,2.83
2022-08-30T18:32:11.644Z,3.30
2022-08-30T18:34:40.399Z,3.40
2022-08-30T18:37:11.450Z,3.33
2022-08-30T18:39:39.599Z,3.03
2022-08-30T18:42:09.002Z,3.40
2022-08-30T18:44:37.207Z,3.17
2022-08-30T18:47:05.695Z,3.40
2022-08-30T18:49:53.942Z,3.70
2022-08-30T18:52:20.688Z,3.20
2022-08-30T18:54:52.788Z,3.40
2022-08-30T18:57:21.000Z,4.83
2022-08-30T18:59:48.633Z,5.07
2022-08-30T19:02:16.728Z,7.23
2022-08-30T19:04:46.379Z,4.43
2022-08-30T19:07:15.952Z,4.70
2022-08-30T19:09:43.386Z,3.53
2022-08-30T19:12:11.954Z,4.07
2022-08-30T19:14:39.237Z,4.03
2022-08-30T19:17:07.175Z,4.27
2022-08-30T19:19:37.253Z,4.47
2022-08-30T19:22:15.225Z,4.77
2022-08-30T19:24:41.983Z,4.37
2022-08-30T19:27:10.224Z,4.40
2022-08-30T19:29:37.013Z,4.13
2022-08-30T19:32:04.399Z,4.07
2022-08-30T19:34:30.982Z,4.20
2022-08-30T19:36:57.787Z,4.03
2022-08-30T19:39:24.368Z,4.17
2022-08-30T19:41:50.976Z,3.60
2022-08-30T19:44:17.946Z,3.57
2022-08-30T19:46:44.525Z,3.43
2022-08-30T19:49:11.309Z,3.30
2022-08-30T19:51:39.746Z,3.70
2022-08-30T19:54:14.055Z,3.10
2022-08-30T19:56:40.795Z,3.50
2022-08-30T19:59:07.547Z,3.63
2022-08-30T20:01:34.550Z,3.47
2022-08-30T20:04:02.500Z,3.53
2022-08-30T20:06:29.767Z,3.40
2022-08-30T20:08:56.641Z,3.90
2022-08-30T20:11:25.279Z,4.03
2022-08-30T20:13:51.870Z,4.03
2022-08-30T20:16:19.029Z,3.73
2022-08-30T20:18:45.883Z,3.90
2022-08-30T20:21:14.470Z,3.90
2022-08-30T20:23:43.122Z,4.00
2022-08-30T20:26:11.407Z,4.33
2022-08-30T20:28:38.588Z,4.00
2022-08-30T20:31:07.296Z,3.70
2022-08-30T20:33:37.521Z,3.87
2022-08-30T20:36:09.768Z,4.00
2022-08-30T20:38:36.575Z,4.13
2022-08-30T20:41:12.985Z,3.50
2022-08-30T20:43:40.243Z,3.57
2022-08-30T20:46:15.631Z,3.83
2022-08-30T20:48:43.533Z,3.77
2022-08-30T20:51:13.062Z,3.63
2022-08-30T20:53:39.626Z,3.73
2022-08-30T20:56:12.265Z,3.47
2022-08-30T20:58:39.050Z,3.47
2022-08-30T21:01:08.735Z,3.50
2022-08-30T21:03:36.652Z,3.37
2022-08-30T21:06:04.015Z,3.20
2022-08-30T21:08:30.631Z,2.90
2022-08-30T21:10:57.558Z,2.90
2022-08-30T21:13:24.420Z,3.30
2022-08-30T21:15:53.154Z,3.60
2022-08-30T21:18:21.553Z,3.83
2022-08-30T21:20:48.138Z,3.47
2022-08-30T21:23:15.365Z,4.03
2022-08-30T21:25:43.360Z,4.40
2022-08-30T21:28:10.522Z,4.20
2022-08-30T21:30:37.794Z,4.20
2022-08-30T21:33:05.971Z,5.10
2022-08-30T21:35:51.491Z,4.27
2022-08-30T21:38:19.320Z,4.33
2022-08-30T21:40:46.395Z,4.10
2022-08-30T21:43:13.005Z,4.40
2022-08-30T21:45:44.806Z,4.00
2022-08-30T21:48:13.106Z,4.50
2022-08-30T21:50:41.510Z,4.03
2022-08-30T21:53:08.248Z,4.30
2022-08-30T21:55:34.858Z,4.47
2022-08-30T21:58:01.461Z,4.23
2022-08-30T22:00:30.497Z,4.90
2022-08-30T22:02:57.577Z,4.37
2022-08-30T22:05:24.284Z,4.47
2022-08-30T22:07:50.908Z,4.30
2022-08-30T22:10:18.131Z,4.50
2022-08-30T22:12:44.712Z,4.80
2022-08-30T22:15:11.614Z,3.73
2022-08-30T22:17:38.203Z,4.13
2022-08-30T22:20:06.375Z,4.07
2022-08-30T22:22:33.190Z,3.80
2022-08-30T22:24:59.783Z,4.20
2022-08-30T22:27:26.685Z,4.03
2022-08-30T22:29:53.275Z,3.93
2022-08-30T22:32:19.933Z,4.00
2022-08-30T22:34:47.055Z,3.90
2022-08-30T22:37:13.897Z,4.00
2022-08-30T22:39:40.455Z,3.87
2022-08-30T22:42:09.766Z,3.73
2022-08-30T22:44:36.539Z,4.23
2022-08-30T22:47:03.146Z,4.07
2022-08-30T22:49:29.724Z,3.77
2022-08-30T22:51:56.287Z,3.30
2022-08-30T22:54:22.826Z,3.43
2022-08-30T22:56:50.005Z,3.50
2022-08-30T22:59:16.796Z,3.77
2022-08-30T23:01:43.756Z,3.47
2022-08-30T23:04:11.755Z,3.20
2022-08-30T23:06:39.308Z,3.87
2022-08-30T23:09:07.507Z,3.27
2022-08-30T23:11:35.065Z,3.27
2022-08-30T23:14:03.246Z,3.53
2022-08-30T23:16:30.689Z,3.77
2022-08-30T23:18:57.464Z,3.20
2022-08-30T23:21:26.829Z,3.20
2022-08-30T23:24:14.389Z,3.37
2022-08-30T23:27:01.432Z,2.90
2022-08-30T23:29:48.768Z,3.17
2022-08-30T23:32:34.179Z,3.23
2022-08-30T23:35:19.704Z,3.53
2022-08-30T23:38:05.882Z,3.80
2022-08-30T23:40:51.127Z,3.93
2022-08-30T23:43:36.796Z,4.53
2022-08-30T23:46:22.129Z,3.57
2022-08-30T23:49:07.852Z,3.80
2022-08-30T23:51:54.186Z,4.03
2022-08-30T23:54:39.591Z,3.90
2022-08-30T23:57:24.985Z,3.97
